KBLF

Mercer County Airport

Bluefield, West Virginia, USA
METAR KBLF 201952Z AUTO 15004KT 10SM OVC080 22/19 A3011 RMK AO2 RAE28 SLP162 P0004 T02170194
Observed Flight Rules
Aug-20 @ 19:52 UTC (38 minutes ago) Visual Flight Rules
Wind Visibility Clouds
150° at 4 knots 10 miles
  • Overcast at 8,000' AGL
Temperatures Readings Precipitation
Current 22°C / 72°F
Dewpoint 19°C / 66°F
Humidity 83%
Altimeter 30.11" Hg
Pressure 1016.2 hPa
Elevation 873
Current Rain 0.04
METAR KBLF 201952Z AUTO 15004KT 10SM OVC080 22/19 A3011 RMK AO2 RAE28 SLP162 P0004 T02170194
Observed Flight Rules
Aug-20 @ 19:52 UTC
(38 minutes ago)
VFR
Wind Visibility
150° at 4 knots 10 miles
Clouds
  • Overcast at 8,000' AGL
Temperature Dewpoint
22°C / 72°F 19°C / 66°F
Humidity Altimeter Pressure
83% 30.11" Hg 1016.2 hPa
Current Rain
0.04